sensor_id;sensor_type;location;lat;lon;timestamp;P1;durP1;ratioP1;P2;durP2;ratioP2
62338;SDS011;48368;53.406;6.214;2023-12-20T00:01:54;19.15;;;2.42;;
62338;SDS011;48368;53.406;6.214;2023-12-20T00:04:19;18.88;;;3.55;;
62338;SDS011;48368;53.406;6.214;2023-12-20T00:06:45;10.55;;;1.80;;
62338;SDS011;48368;53.406;6.214;2023-12-20T00:09:11;13.98;;;2.22;;
62338;SDS011;48368;53.406;6.214;2023-12-20T00:11:36;15.85;;;2.95;;
62338;SDS011;48368;53.406;6.214;2023-12-20T00:14:02;13.15;;;2.65;;
62338;SDS011;48368;53.406;6.214;2023-12-20T00:16:28;16.80;;;2.45;;
62338;SDS011;48368;53.406;6.214;2023-12-20T00:18:53;16.42;;;2.58;;
62338;SDS011;48368;53.406;6.214;2023-12-20T00:21:19;22.15;;;3.00;;
62338;SDS011;48368;53.406;6.214;2023-12-20T00:23:44;16.58;;;1.95;;
62338;SDS011;48368;53.406;6.214;2023-12-20T00:26:10;17.30;;;2.15;;
62338;SDS011;48368;53.406;6.214;2023-12-20T00:28:36;22.35;;;2.95;;
62338;SDS011;48368;53.406;6.214;2023-12-20T00:31:06;23.40;;;4.53;;
62338;SDS011;48368;53.406;6.214;2023-12-20T00:33:32;21.63;;;2.75;;
62338;SDS011;48368;53.406;6.214;2023-12-20T00:35:58;19.60;;;2.80;;
62338;SDS011;48368;53.406;6.214;2023-12-20T00:38:23;15.80;;;2.03;;
62338;SDS011;48368;53.406;6.214;2023-12-20T00:40:49;15.90;;;2.70;;
62338;SDS011;48368;53.406;6.214;2023-12-20T00:43:17;15.27;;;2.55;;
62338;SDS011;48368;53.406;6.214;2023-12-20T00:45:43;12.75;;;3.15;;
62338;SDS011;48368;53.406;6.214;2023-12-20T00:48:08;15.25;;;2.65;;
62338;SDS011;48368;53.406;6.214;2023-12-20T00:50:37;19.17;;;3.47;;
62338;SDS011;48368;53.406;6.214;2023-12-20T00:53:04;21.73;;;2.78;;
62338;SDS011;48368;53.406;6.214;2023-12-20T00:55:30;16.17;;;3.10;;
62338;SDS011;48368;53.406;6.214;2023-12-20T00:57:56;23.45;;;2.83;;
62338;SDS011;48368;53.406;6.214;2023-12-20T01:00:22;26.08;;;3.97;;
62338;SDS011;48368;53.406;6.214;2023-12-20T01:02:47;15.30;;;3.42;;
62338;SDS011;48368;53.406;6.214;2023-12-20T01:05:14;23.88;;;4.28;;
62338;SDS011;48368;53.406;6.214;2023-12-20T01:07:40;20.88;;;3.85;;
62338;SDS011;48368;53.406;6.214;2023-12-20T01:10:08;21.83;;;3.08;;
62338;SDS011;48368;53.406;6.214;2023-12-20T01:12:35;17.27;;;2.53;;
62338;SDS011;48368;53.406;6.214;2023-12-20T01:15:01;14.63;;;2.72;;
62338;SDS011;48368;53.406;6.214;2023-12-20T01:17:27;22.85;;;2.97;;
62338;SDS011;48368;53.406;6.214;2023-12-20T01:19:52;18.40;;;3.03;;
62338;SDS011;48368;53.406;6.214;2023-12-20T01:22:18;17.27;;;4.32;;
62338;SDS011;48368;53.406;6.214;2023-12-20T01:24:56;21.33;;;3.60;;
62338;SDS011;48368;53.406;6.214;2023-12-20T01:27:23;17.58;;;3.10;;
62338;SDS011;48368;53.406;6.214;2023-12-20T01:29:49;16.25;;;3.47;;
62338;SDS011;48368;53.406;6.214;2023-12-20T01:32:30;23.42;;;4.50;;
62338;SDS011;48368;53.406;6.214;2023-12-20T01:34:55;17.10;;;2.53;;
62338;SDS011;48368;53.406;6.214;2023-12-20T01:37:21;19.20;;;3.38;;
62338;SDS011;48368;53.406;6.214;2023-12-20T01:39:48;17.23;;;2.85;;
62338;SDS011;48368;53.406;6.214;2023-12-20T01:42:14;18.30;;;3.03;;
62338;SDS011;48368;53.406;6.214;2023-12-20T01:44:40;28.30;;;4.28;;
62338;SDS011;48368;53.406;6.214;2023-12-20T01:47:05;29.38;;;4.88;;
62338;SDS011;48368;53.406;6.214;2023-12-20T01:49:32;24.45;;;4.68;;
62338;SDS011;48368;53.406;6.214;2023-12-20T01:51:58;22.83;;;2.80;;
62338;SDS011;48368;53.406;6.214;2023-12-20T01:54:24;18.58;;;3.67;;
62338;SDS011;48368;53.406;6.214;2023-12-20T01:56:50;23.70;;;3.75;;
62338;SDS011;48368;53.406;6.214;2023-12-20T01:59:16;29.42;;;5.00;;
62338;SDS011;48368;53.406;6.214;2023-12-20T02:01:44;20.92;;;3.70;;
62338;SDS011;48368;53.406;6.214;2023-12-20T02:04:10;35.65;;;5.90;;
62338;SDS011;48368;53.406;6.214;2023-12-20T02:06:35;29.70;;;4.95;;
62338;SDS011;48368;53.406;6.214;2023-12-20T02:09:04;14.50;;;3.28;;
62338;SDS011;48368;53.406;6.214;2023-12-20T02:11:30;22.27;;;3.50;;
62338;SDS011;48368;53.406;6.214;2023-12-20T02:13:56;23.75;;;4.85;;
62338;SDS011;48368;53.406;6.214;2023-12-20T02:16:22;19.70;;;3.78;;
62338;SDS011;48368;53.406;6.214;2023-12-20T02:18:47;17.52;;;3.08;;
62338;SDS011;48368;53.406;6.214;2023-12-20T02:21:13;25.00;;;4.03;;
62338;SDS011;48368;53.406;6.214;2023-12-20T02:23:40;22.30;;;3.10;;
62338;SDS011;48368;53.406;6.214;2023-12-20T02:26:05;21.83;;;3.25;;
62338;SDS011;48368;53.406;6.214;2023-12-20T02:28:32;22.27;;;3.55;;
62338;SDS011;48368;53.406;6.214;2023-12-20T02:30:58;25.27;;;3.65;;
62338;SDS011;48368;53.406;6.214;2023-12-20T02:33:24;25.73;;;4.07;;
62338;SDS011;48368;53.406;6.214;2023-12-20T02:35:49;27.23;;;5.75;;
62338;SDS011;48368;53.406;6.214;2023-12-20T02:38:15;29.38;;;4.43;;
62338;SDS011;48368;53.406;6.214;2023-12-20T02:40:41;21.23;;;3.67;;
62338;SDS011;48368;53.406;6.214;2023-12-20T02:43:06;28.95;;;3.80;;
62338;SDS011;48368;53.406;6.214;2023-12-20T02:45:32;36.78;;;4.80;;
62338;SDS011;48368;53.406;6.214;2023-12-20T02:47:57;22.88;;;4.30;;
62338;SDS011;48368;53.406;6.214;2023-12-20T02:50:23;22.13;;;4.00;;
62338;SDS011;48368;53.406;6.214;2023-12-20T02:52:49;20.52;;;4.35;;
62338;SDS011;48368;53.406;6.214;2023-12-20T02:55:14;24.65;;;3.50;;
62338;SDS011;48368;53.406;6.214;2023-12-20T02:57:40;25.67;;;5.85;;
62338;SDS011;48368;53.406;6.214;2023-12-20T03:00:07;27.65;;;4.40;;
62338;SDS011;48368;53.406;6.214;2023-12-20T03:02:34;20.05;;;3.83;;
62338;SDS011;48368;53.406;6.214;2023-12-20T03:05:00;17.33;;;3.78;;
62338;SDS011;48368;53.406;6.214;2023-12-20T03:07:26;26.83;;;3.70;;
62338;SDS011;48368;53.406;6.214;2023-12-20T03:09:52;13.48;;;2.55;;
62338;SDS011;48368;53.406;6.214;2023-12-20T03:12:17;13.13;;;2.65;;
62338;SDS011;48368;53.406;6.214;2023-12-20T03:14:43;10.38;;;1.73;;
62338;SDS011;48368;53.406;6.214;2023-12-20T03:17:09;18.95;;;3.03;;
62338;SDS011;48368;53.406;6.214;2023-12-20T03:19:38;18.17;;;2.80;;
62338;SDS011;48368;53.406;6.214;2023-12-20T03:22:04;30.55;;;3.92;;
62338;SDS011;48368;53.406;6.214;2023-12-20T03:24:29;26.02;;;4.82;;
62338;SDS011;48368;53.406;6.214;2023-12-20T03:26:55;27.50;;;4.32;;
62338;SDS011;48368;53.406;6.214;2023-12-20T03:29:21;29.08;;;6.13;;
62338;SDS011;48368;53.406;6.214;2023-12-20T03:31:46;28.98;;;4.53;;
62338;SDS011;48368;53.406;6.214;2023-12-20T03:34:12;30.27;;;4.07;;
62338;SDS011;48368;53.406;6.214;2023-12-20T03:36:37;32.70;;;5.88;;
62338;SDS011;48368;53.406;6.214;2023-12-20T03:39:03;33.28;;;5.38;;
62338;SDS011;48368;53.406;6.214;2023-12-20T03:41:30;32.97;;;4.88;;
62338;SDS011;48368;53.406;6.214;2023-12-20T03:43:55;28.80;;;5.10;;
62338;SDS011;48368;53.406;6.214;2023-12-20T03:46:21;26.55;;;4.18;;
62338;SDS011;48368;53.406;6.214;2023-12-20T03:48:46;33.63;;;4.95;;
62338;SDS011;48368;53.406;6.214;2023-12-20T03:51:12;27.17;;;4.63;;
62338;SDS011;48368;53.406;6.214;2023-12-20T03:53:38;30.17;;;4.43;;
62338;SDS011;48368;53.406;6.214;2023-12-20T03:56:05;26.33;;;4.38;;
62338;SDS011;48368;53.406;6.214;2023-12-20T03:58:31;29.65;;;4.88;;
62338;SDS011;48368;53.406;6.214;2023-12-20T04:00:56;31.00;;;5.72;;
62338;SDS011;48368;53.406;6.214;2023-12-20T04:03:25;25.88;;;4.82;;
62338;SDS011;48368;53.406;6.214;2023-12-20T04:05:50;24.33;;;5.78;;
62338;SDS011;48368;53.406;6.214;2023-12-20T04:08:16;33.65;;;4.90;;
62338;SDS011;48368;53.406;6.214;2023-12-20T04:10:41;22.30;;;3.58;;
62338;SDS011;48368;53.406;6.214;2023-12-20T04:13:07;23.92;;;4.13;;
62338;SDS011;48368;53.406;6.214;2023-12-20T04:15:33;27.90;;;4.45;;
62338;SDS011;48368;53.406;6.214;2023-12-20T04:18:04;25.50;;;4.45;;
62338;SDS011;48368;53.406;6.214;2023-12-20T04:20:30;27.52;;;4.65;;
62338;SDS011;48368;53.406;6.214;2023-12-20T04:22:56;22.20;;;4.28;;
62338;SDS011;48368;53.406;6.214;2023-12-20T04:25:21;22.13;;;3.72;;
62338;SDS011;48368;53.406;6.214;2023-12-20T04:27:47;21.75;;;3.85;;
62338;SDS011;48368;53.406;6.214;2023-12-20T04:30:13;24.30;;;4.03;;
62338;SDS011;48368;53.406;6.214;2023-12-20T04:32:38;27.33;;;3.33;;
62338;SDS011;48368;53.406;6.214;2023-12-20T04:35:07;33.28;;;4.95;;
62338;SDS011;48368;53.406;6.214;2023-12-20T04:37:33;21.23;;;3.78;;
62338;SDS011;48368;53.406;6.214;2023-12-20T04:39:59;23.88;;;4.15;;
62338;SDS011;48368;53.406;6.214;2023-12-20T04:42:24;18.08;;;3.80;;
62338;SDS011;48368;53.406;6.214;2023-12-20T04:44:50;23.83;;;4.43;;
62338;SDS011;48368;53.406;6.214;2023-12-20T04:47:16;24.48;;;4.43;;
62338;SDS011;48368;53.406;6.214;2023-12-20T04:49:41;24.88;;;4.18;;
62338;SDS011;48368;53.406;6.214;2023-12-20T04:52:07;17.42;;;3.28;;
62338;SDS011;48368;53.406;6.214;2023-12-20T04:54:32;20.55;;;4.25;;
62338;SDS011;48368;53.406;6.214;2023-12-20T04:56:58;26.90;;;5.18;;
62338;SDS011;48368;53.406;6.214;2023-12-20T04:59:23;19.48;;;3.72;;
62338;SDS011;48368;53.406;6.214;2023-12-20T05:01:49;26.63;;;4.07;;
62338;SDS011;48368;53.406;6.214;2023-12-20T05:04:17;23.02;;;4.00;;
62338;SDS011;48368;53.406;6.214;2023-12-20T05:06:43;22.63;;;3.67;;
62338;SDS011;48368;53.406;6.214;2023-12-20T05:09:12;24.08;;;5.00;;
62338;SDS011;48368;53.406;6.214;2023-12-20T05:11:37;27.17;;;4.35;;
62338;SDS011;48368;53.406;6.214;2023-12-20T05:14:03;24.60;;;4.80;;
62338;SDS011;48368;53.406;6.214;2023-12-20T05:16:28;28.17;;;4.15;;
62338;SDS011;48368;53.406;6.214;2023-12-20T05:18:54;23.20;;;4.05;;
62338;SDS011;48368;53.406;6.214;2023-12-20T05:21:21;24.65;;;3.40;;
62338;SDS011;48368;53.406;6.214;2023-12-20T05:23:46;25.35;;;5.53;;
62338;SDS011;48368;53.406;6.214;2023-12-20T05:26:12;22.27;;;3.60;;
62338;SDS011;48368;53.406;6.214;2023-12-20T05:28:37;25.30;;;4.38;;
62338;SDS011;48368;53.406;6.214;2023-12-20T05:31:03;19.10;;;3.85;;
62338;SDS011;48368;53.406;6.214;2023-12-20T05:33:28;27.38;;;4.05;;
62338;SDS011;48368;53.406;6.214;2023-12-20T05:35:54;38.08;;;4.57;;
62338;SDS011;48368;53.406;6.214;2023-12-20T05:38:20;25.25;;;4.50;;
62338;SDS011;48368;53.406;6.214;2023-12-20T05:40:45;28.35;;;3.75;;
62338;SDS011;48368;53.406;6.214;2023-12-20T05:43:11;24.20;;;4.45;;
62338;SDS011;48368;53.406;6.214;2023-12-20T05:45:36;28.02;;;5.28;;
62338;SDS011;48368;53.406;6.214;2023-12-20T05:48:02;25.63;;;4.07;;
62338;SDS011;48368;53.406;6.214;2023-12-20T05:50:34;23.10;;;5.50;;
62338;SDS011;48368;53.406;6.214;2023-12-20T05:53:00;30.38;;;3.63;;
62338;SDS011;48368;53.406;6.214;2023-12-20T05:55:26;26.40;;;4.60;;
62338;SDS011;48368;53.406;6.214;2023-12-20T05:57:51;23.23;;;4.72;;
62338;SDS011;48368;53.406;6.214;2023-12-20T06:00:17;32.40;;;5.93;;
62338;SDS011;48368;53.406;6.214;2023-12-20T06:02:43;22.80;;;4.95;;
62338;SDS011;48368;53.406;6.214;2023-12-20T06:05:15;31.15;;;6.88;;
62338;SDS011;48368;53.406;6.214;2023-12-20T06:07:41;24.20;;;4.40;;
62338;SDS011;48368;53.406;6.214;2023-12-20T06:10:07;29.25;;;5.22;;
62338;SDS011;48368;53.406;6.214;2023-12-20T06:12:32;34.17;;;6.00;;
62338;SDS011;48368;53.406;6.214;2023-12-20T06:15:03;31.42;;;5.55;;
62338;SDS011;48368;53.406;6.214;2023-12-20T06:17:29;28.10;;;7.30;;
62338;SDS011;48368;53.406;6.214;2023-12-20T06:19:56;26.73;;;6.00;;
62338;SDS011;48368;53.406;6.214;2023-12-20T06:22:22;26.83;;;5.38;;
62338;SDS011;48368;53.406;6.214;2023-12-20T06:24:49;26.23;;;5.45;;
62338;SDS011;48368;53.406;6.214;2023-12-20T06:27:15;37.60;;;6.22;;
62338;SDS011;48368;53.406;6.214;2023-12-20T06:29:43;29.23;;;4.55;;
62338;SDS011;48368;53.406;6.214;2023-12-20T06:32:10;29.80;;;6.05;;
62338;SDS011;48368;53.406;6.214;2023-12-20T06:34:35;32.92;;;6.65;;
62338;SDS011;48368;53.406;6.214;2023-12-20T06:37:01;34.03;;;5.97;;
62338;SDS011;48368;53.406;6.214;2023-12-20T06:39:27;26.38;;;5.82;;
62338;SDS011;48368;53.406;6.214;2023-12-20T06:41:53;27.83;;;4.57;;
62338;SDS011;48368;53.406;6.214;2023-12-20T06:44:18;29.30;;;6.63;;
62338;SDS011;48368;53.406;6.214;2023-12-20T06:46:44;26.02;;;5.82;;
62338;SDS011;48368;53.406;6.214;2023-12-20T06:49:09;27.63;;;4.82;;
62338;SDS011;48368;53.406;6.214;2023-12-20T06:51:43;28.17;;;4.60;;
62338;SDS011;48368;53.406;6.214;2023-12-20T06:54:09;27.65;;;6.03;;
62338;SDS011;48368;53.406;6.214;2023-12-20T06:56:38;23.83;;;4.80;;
62338;SDS011;48368;53.406;6.214;2023-12-20T06:59:03;32.78;;;5.55;;
62338;SDS011;48368;53.406;6.214;2023-12-20T07:01:29;34.28;;;6.38;;
62338;SDS011;48368;53.406;6.214;2023-12-20T07:03:54;37.70;;;5.78;;
62338;SDS011;48368;53.406;6.214;2023-12-20T07:06:20;29.08;;;5.28;;
62338;SDS011;48368;53.406;6.214;2023-12-20T07:08:45;28.83;;;7.45;;
62338;SDS011;48368;53.406;6.214;2023-12-20T07:11:11;24.00;;;4.38;;
62338;SDS011;48368;53.406;6.214;2023-12-20T07:13:40;26.20;;;5.05;;
62338;SDS011;48368;53.406;6.214;2023-12-20T07:16:06;28.90;;;5.18;;
62338;SDS011;48368;53.406;6.214;2023-12-20T07:18:37;26.83;;;5.43;;
62338;SDS011;48368;53.406;6.214;2023-12-20T07:21:03;27.05;;;5.28;;
62338;SDS011;48368;53.406;6.214;2023-12-20T07:23:29;24.17;;;5.32;;
62338;SDS011;48368;53.406;6.214;2023-12-20T07:25:54;25.60;;;4.97;;
62338;SDS011;48368;53.406;6.214;2023-12-20T07:28:20;39.08;;;6.38;;
62338;SDS011;48368;53.406;6.214;2023-12-20T07:30:45;32.50;;;4.88;;
62338;SDS011;48368;53.406;6.214;2023-12-20T07:33:11;37.35;;;6.40;;
62338;SDS011;48368;53.406;6.214;2023-12-20T07:35:37;28.77;;;6.68;;
62338;SDS011;48368;53.406;6.214;2023-12-20T07:38:03;24.00;;;4.75;;
62338;SDS011;48368;53.406;6.214;2023-12-20T07:40:29;29.50;;;4.45;;
62338;SDS011;48368;53.406;6.214;2023-12-20T07:42:54;23.05;;;4.10;;
62338;SDS011;48368;53.406;6.214;2023-12-20T07:45:20;30.10;;;5.70;;
62338;SDS011;48368;53.406;6.214;2023-12-20T07:47:45;25.38;;;5.55;;
62338;SDS011;48368;53.406;6.214;2023-12-20T07:50:11;24.02;;;5.10;;
62338;SDS011;48368;53.406;6.214;2023-12-20T07:52:38;30.50;;;4.40;;
62338;SDS011;48368;53.406;6.214;2023-12-20T07:55:04;24.05;;;4.68;;
62338;SDS011;48368;53.406;6.214;2023-12-20T07:57:30;28.75;;;4.85;;
62338;SDS011;48368;53.406;6.214;2023-12-20T07:59:56;37.00;;;5.38;;
62338;SDS011;48368;53.406;6.214;2023-12-20T08:02:22;33.40;;;6.47;;
62338;SDS011;48368;53.406;6.214;2023-12-20T08:04:47;9.85;;;3.05;;
62338;SDS011;48368;53.406;6.214;2023-12-20T08:07:16;10.60;;;1.42;;
62338;SDS011;48368;53.406;6.214;2023-12-20T08:09:41;11.38;;;2.35;;
62338;SDS011;48368;53.406;6.214;2023-12-20T08:12:08;16.45;;;2.97;;
62338;SDS011;48368;53.406;6.214;2023-12-20T08:14:34;14.50;;;1.90;;
62338;SDS011;48368;53.406;6.214;2023-12-20T08:17:00;17.42;;;2.08;;
62338;SDS011;48368;53.406;6.214;2023-12-20T08:19:25;19.42;;;2.60;;
62338;SDS011;48368;53.406;6.214;2023-12-20T08:21:51;15.70;;;3.50;;
62338;SDS011;48368;53.406;6.214;2023-12-20T08:24:17;16.30;;;2.78;;
62338;SDS011;48368;53.406;6.214;2023-12-20T08:26:42;14.20;;;1.90;;
62338;SDS011;48368;53.406;6.214;2023-12-20T08:29:08;17.38;;;1.95;;
62338;SDS011;48368;53.406;6.214;2023-12-20T08:31:33;14.13;;;2.60;;
62338;SDS011;48368;53.406;6.214;2023-12-20T08:33:59;14.15;;;1.90;;
62338;SDS011;48368;53.406;6.214;2023-12-20T08:36:24;21.40;;;3.92;;
62338;SDS011;48368;53.406;6.214;2023-12-20T08:38:50;26.27;;;4.40;;
62338;SDS011;48368;53.406;6.214;2023-12-20T08:41:16;13.15;;;1.88;;
62338;SDS011;48368;53.406;6.214;2023-12-20T08:43:42;21.10;;;3.63;;
62338;SDS011;48368;53.406;6.214;2023-12-20T08:46:08;21.05;;;4.20;;
62338;SDS011;48368;53.406;6.214;2023-12-20T08:48:39;17.95;;;2.45;;
62338;SDS011;48368;53.406;6.214;2023-12-20T08:51:05;16.85;;;2.40;;
62338;SDS011;48368;53.406;6.214;2023-12-20T08:53:34;11.25;;;2.13;;
62338;SDS011;48368;53.406;6.214;2023-12-20T08:56:00;13.32;;;1.50;;
62338;SDS011;48368;53.406;6.214;2023-12-20T08:58:27;13.20;;;2.05;;
62338;SDS011;48368;53.406;6.214;2023-12-20T09:00:56;11.20;;;1.48;;
62338;SDS011;48368;53.406;6.214;2023-12-20T09:03:22;15.35;;;2.10;;
62338;SDS011;48368;53.406;6.214;2023-12-20T09:05:48;8.65;;;1.65;;
62338;SDS011;48368;53.406;6.214;2023-12-20T09:08:23;9.15;;;2.65;;
62338;SDS011;48368;53.406;6.214;2023-12-20T09:10:48;15.48;;;1.95;;
62338;SDS011;48368;53.406;6.214;2023-12-20T09:13:14;10.15;;;1.60;;
62338;SDS011;48368;53.406;6.214;2023-12-20T09:15:39;9.70;;;2.00;;
62338;SDS011;48368;53.406;6.214;2023-12-20T09:18:05;13.13;;;1.83;;
62338;SDS011;48368;53.406;6.214;2023-12-20T09:20:31;20.05;;;2.85;;
62338;SDS011;48368;53.406;6.214;2023-12-20T09:22:56;15.10;;;1.95;;
62338;SDS011;48368;53.406;6.214;2023-12-20T09:25:22;22.55;;;2.58;;
62338;SDS011;48368;53.406;6.214;2023-12-20T09:27:48;22.13;;;2.75;;
62338;SDS011;48368;53.406;6.214;2023-12-20T09:30:14;20.48;;;2.20;;
62338;SDS011;48368;53.406;6.214;2023-12-20T09:32:39;22.60;;;2.42;;
62338;SDS011;48368;53.406;6.214;2023-12-20T09:35:05;18.33;;;2.45;;
62338;SDS011;48368;53.406;6.214;2023-12-20T09:37:31;16.48;;;2.70;;
62338;SDS011;48368;53.406;6.214;2023-12-20T09:39:57;22.42;;;2.97;;
62338;SDS011;48368;53.406;6.214;2023-12-20T09:42:38;20.08;;;2.53;;
62338;SDS011;48368;53.406;6.214;2023-12-20T09:45:12;15.45;;;2.75;;
62338;SDS011;48368;53.406;6.214;2023-12-20T09:47:39;15.65;;;2.53;;
62338;SDS011;48368;53.406;6.214;2023-12-20T09:50:06;15.52;;;2.33;;
62338;SDS011;48368;53.406;6.214;2023-12-20T09:52:32;11.45;;;1.58;;
62338;SDS011;48368;53.406;6.214;2023-12-20T09:55:03;17.30;;;2.17;;
62338;SDS011;48368;53.406;6.214;2023-12-20T09:57:31;13.05;;;1.88;;
62338;SDS011;48368;53.406;6.214;2023-12-20T09:59:57;23.70;;;2.65;;
62338;SDS011;48368;53.406;6.214;2023-12-20T10:02:23;8.25;;;1.98;;
62338;SDS011;48368;53.406;6.214;2023-12-20T10:04:52;12.35;;;2.28;;
62338;SDS011;48368;53.406;6.214;2023-12-20T10:07:19;16.80;;;2.10;;
62338;SDS011;48368;53.406;6.214;2023-12-20T10:09:45;12.23;;;2.28;;
62338;SDS011;48368;53.406;6.214;2023-12-20T10:12:12;12.20;;;1.70;;
62338;SDS011;48368;53.406;6.214;2023-12-20T10:14:38;11.98;;;2.80;;
62338;SDS011;48368;53.406;6.214;2023-12-20T10:17:05;15.38;;;3.00;;
62338;SDS011;48368;53.406;6.214;2023-12-20T10:19:33;16.13;;;2.25;;
62338;SDS011;48368;53.406;6.214;2023-12-20T10:21:59;18.50;;;2.75;;
62338;SDS011;48368;53.406;6.214;2023-12-20T10:24:25;21.95;;;2.30;;
62338;SDS011;48368;53.406;6.214;2023-12-20T10:27:03;23.50;;;4.43;;
62338;SDS011;48368;53.406;6.214;2023-12-20T10:29:36;17.00;;;3.05;;
62338;SDS011;48368;53.406;6.214;2023-12-20T10:35:00;14.63;;;2.83;;
62338;SDS011;48368;53.406;6.214;2023-12-20T10:37:25;18.92;;;3.55;;
62338;SDS011;48368;53.406;6.214;2023-12-20T10:39:52;18.45;;;3.95;;
62338;SDS011;48368;53.406;6.214;2023-12-20T10:42:27;23.35;;;2.92;;
62338;SDS011;48368;53.406;6.214;2023-12-20T10:44:54;22.05;;;3.20;;
62338;SDS011;48368;53.406;6.214;2023-12-20T10:47:20;23.45;;;4.10;;
62338;SDS011;48368;53.406;6.214;2023-12-20T10:49:46;17.13;;;2.95;;
62338;SDS011;48368;53.406;6.214;2023-12-20T10:52:15;20.65;;;3.45;;
62338;SDS011;48368;53.406;6.214;2023-12-20T10:54:45;21.25;;;5.53;;
62338;SDS011;48368;53.406;6.214;2023-12-20T10:57:11;25.95;;;4.35;;
62338;SDS011;48368;53.406;6.214;2023-12-20T10:59:37;16.35;;;3.40;;
62338;SDS011;48368;53.406;6.214;2023-12-20T11:02:03;32.42;;;4.18;;
62338;SDS011;48368;53.406;6.214;2023-12-20T11:04:52;35.90;;;6.53;;
62338;SDS011;48368;53.406;6.214;2023-12-20T11:10:03;18.10;;;3.78;;
62338;SDS011;48368;53.406;6.214;2023-12-20T11:15:17;12.82;;;2.78;;
62338;SDS011;48368;53.406;6.214;2023-12-20T11:17:47;27.83;;;3.22;;
62338;SDS011;48368;53.406;6.214;2023-12-20T11:20:21;22.10;;;3.60;;
62338;SDS011;48368;53.406;6.214;2023-12-20T11:22:53;28.45;;;4.15;;
62338;SDS011;48368;53.406;6.214;2023-12-20T11:25:19;20.42;;;4.93;;
62338;SDS011;48368;53.406;6.214;2023-12-20T11:30:52;20.05;;;3.08;;
62338;SDS011;48368;53.406;6.214;2023-12-20T11:33:24;26.00;;;3.67;;
62338;SDS011;48368;53.406;6.214;2023-12-20T11:35:55;17.60;;;3.55;;
62338;SDS011;48368;53.406;6.214;2023-12-20T11:38:21;21.50;;;4.07;;
62338;SDS011;48368;53.406;6.214;2023-12-20T11:40:48;19.10;;;3.15;;
62338;SDS011;48368;53.406;6.214;2023-12-20T11:43:30;21.85;;;3.28;;
62338;SDS011;48368;53.406;6.214;2023-12-20T11:46:02;21.80;;;3.45;;
62338;SDS011;48368;53.406;6.214;2023-12-20T11:48:32;15.60;;;2.38;;
62338;SDS011;48368;53.406;6.214;2023-12-20T11:50:59;12.93;;;1.90;;
62338;SDS011;48368;53.406;6.214;2023-12-20T11:53:25;19.48;;;2.67;;
62338;SDS011;48368;53.406;6.214;2023-12-20T11:55:51;15.75;;;2.95;;
62338;SDS011;48368;53.406;6.214;2023-12-20T11:58:19;13.25;;;2.28;;
62338;SDS011;48368;53.406;6.214;2023-12-20T12:00:45;15.65;;;2.05;;
62338;SDS011;48368;53.406;6.214;2023-12-20T12:03:14;12.20;;;2.10;;
62338;SDS011;48368;53.406;6.214;2023-12-20T12:05:40;16.60;;;2.63;;
62338;SDS011;48368;53.406;6.214;2023-12-20T12:08:06;25.23;;;5.38;;
62338;SDS011;48368;53.406;6.214;2023-12-20T12:10:32;16.60;;;2.72;;
62338;SDS011;48368;53.406;6.214;2023-12-20T12:13:04;16.33;;;2.45;;
62338;SDS011;48368;53.406;6.214;2023-12-20T12:15:29;12.43;;;2.88;;
62338;SDS011;48368;53.406;6.214;2023-12-20T12:17:56;14.93;;;2.60;;
62338;SDS011;48368;53.406;6.214;2023-12-20T12:20:22;16.15;;;2.22;;
62338;SDS011;48368;53.406;6.214;2023-12-20T12:23:01;16.85;;;2.75;;
62338;SDS011;48368;53.406;6.214;2023-12-20T12:25:28;18.10;;;2.22;;
62338;SDS011;48368;53.406;6.214;2023-12-20T12:27:55;15.55;;;2.92;;
62338;SDS011;48368;53.406;6.214;2023-12-20T12:30:22;15.05;;;3.67;;
62338;SDS011;48368;53.406;6.214;2023-12-20T12:32:48;18.05;;;2.65;;
62338;SDS011;48368;53.406;6.214;2023-12-20T12:35:14;22.52;;;2.97;;
62338;SDS011;48368;53.406;6.214;2023-12-20T12:37:40;16.55;;;2.35;;
62338;SDS011;48368;53.406;6.214;2023-12-20T12:40:07;21.25;;;2.88;;
62338;SDS011;48368;53.406;6.214;2023-12-20T12:42:42;23.70;;;4.15;;
62338;SDS011;48368;53.406;6.214;2023-12-20T12:45:09;24.27;;;3.33;;
62338;SDS011;48368;53.406;6.214;2023-12-20T12:47:36;13.68;;;2.85;;
62338;SDS011;48368;53.406;6.214;2023-12-20T12:50:03;17.73;;;2.33;;
62338;SDS011;48368;53.406;6.214;2023-12-20T12:52:34;18.02;;;2.17;;
62338;SDS011;48368;53.406;6.214;2023-12-20T12:55:00;19.75;;;3.15;;
62338;SDS011;48368;53.406;6.214;2023-12-20T12:57:26;16.25;;;2.72;;
62338;SDS011;48368;53.406;6.214;2023-12-20T12:59:52;16.17;;;2.80;;
62338;SDS011;48368;53.406;6.214;2023-12-20T13:02:18;17.90;;;2.85;;
62338;SDS011;48368;53.406;6.214;2023-12-20T13:04:43;14.57;;;2.85;;
62338;SDS011;48368;53.406;6.214;2023-12-20T13:07:09;9.70;;;2.20;;
62338;SDS011;48368;53.406;6.214;2023-12-20T13:09:38;12.73;;;1.65;;
62338;SDS011;48368;53.406;6.214;2023-12-20T13:12:04;11.60;;;1.70;;
62338;SDS011;48368;53.406;6.214;2023-12-20T13:14:34;12.13;;;1.75;;
62338;SDS011;48368;53.406;6.214;2023-12-20T13:17:02;10.07;;;1.80;;
62338;SDS011;48368;53.406;6.214;2023-12-20T13:19:28;13.75;;;1.50;;
62338;SDS011;48368;53.406;6.214;2023-12-20T13:21:55;13.52;;;1.80;;
62338;SDS011;48368;53.406;6.214;2023-12-20T13:24:21;21.10;;;2.67;;
62338;SDS011;48368;53.406;6.214;2023-12-20T13:26:46;15.48;;;2.10;;
62338;SDS011;48368;53.406;6.214;2023-12-20T13:29:18;10.05;;;1.77;;
62338;SDS011;48368;53.406;6.214;2023-12-20T13:31:45;15.02;;;2.85;;
62338;SDS011;48368;53.406;6.214;2023-12-20T13:34:11;11.98;;;1.30;;
62338;SDS011;48368;53.406;6.214;2023-12-20T13:36:37;15.43;;;2.10;;
62338;SDS011;48368;53.406;6.214;2023-12-20T13:39:03;14.77;;;2.05;;
62338;SDS011;48368;53.406;6.214;2023-12-20T13:41:30;12.50;;;3.20;;
62338;SDS011;48368;53.406;6.214;2023-12-20T13:43:56;10.02;;;1.55;;
62338;SDS011;48368;53.406;6.214;2023-12-20T13:46:22;14.30;;;2.45;;
62338;SDS011;48368;53.406;6.214;2023-12-20T13:48:48;14.93;;;1.70;;
62338;SDS011;48368;53.406;6.214;2023-12-20T13:51:14;15.48;;;2.85;;
62338;SDS011;48368;53.406;6.214;2023-12-20T13:53:40;16.35;;;2.20;;
62338;SDS011;48368;53.406;6.214;2023-12-20T13:56:06;17.67;;;2.50;;
62338;SDS011;48368;53.406;6.214;2023-12-20T13:58:32;14.88;;;1.73;;
62338;SDS011;48368;53.406;6.214;2023-12-20T14:00:57;10.90;;;2.17;;
62338;SDS011;48368;53.406;6.214;2023-12-20T14:03:23;9.82;;;1.33;;
62338;SDS011;48368;53.406;6.214;2023-12-20T14:05:49;22.48;;;3.97;;
62338;SDS011;48368;53.406;6.214;2023-12-20T14:08:14;10.80;;;1.33;;
62338;SDS011;48368;53.406;6.214;2023-12-20T14:10:40;11.15;;;1.42;;
62338;SDS011;48368;53.406;6.214;2023-12-20T14:13:05;9.93;;;1.70;;
62338;SDS011;48368;53.406;6.214;2023-12-20T14:15:31;17.52;;;1.55;;
62338;SDS011;48368;53.406;6.214;2023-12-20T14:18:02;11.10;;;2.05;;
62338;SDS011;48368;53.406;6.214;2023-12-20T14:20:35;10.85;;;1.80;;
62338;SDS011;48368;53.406;6.214;2023-12-20T14:23:01;5.97;;;1.40;;
62338;SDS011;48368;53.406;6.214;2023-12-20T14:25:28;8.25;;;1.17;;
62338;SDS011;48368;53.406;6.214;2023-12-20T14:27:54;8.48;;;1.27;;
62338;SDS011;48368;53.406;6.214;2023-12-20T14:30:20;7.50;;;1.50;;
62338;SDS011;48368;53.406;6.214;2023-12-20T14:32:46;5.05;;;1.33;;
62338;SDS011;48368;53.406;6.214;2023-12-20T14:35:13;11.80;;;1.08;;
62338;SDS011;48368;53.406;6.214;2023-12-20T14:37:39;12.50;;;1.13;;
62338;SDS011;48368;53.406;6.214;2023-12-20T14:40:06;7.40;;;2.03;;
62338;SDS011;48368;53.406;6.214;2023-12-20T14:42:36;12.05;;;2.58;;
62338;SDS011;48368;53.406;6.214;2023-12-20T14:45:02;8.07;;;1.13;;